Flood From: 19-02-2018 10:30 Until: 20-02-2018 06:00 warning for: Flood Level: Yellow info button

Although rather usual in this region, locally or potentially dangerous phenomena are expected. (such as local winds, summer thunderstorms, rising streams or high waves) Be aware and pay attention to the latest weather updates, especially if you carry out activities exposed to weather or close to a stream or shoreline. 


Meteo18 Weather Cam more information Meteo18 Weather Cam


Thunder radar more information blitzortung!


Rain radar more information rain snow radar


Visit our other weather sites:

Template documentation
and downloads

And another site



Weather Underground History page Text

Daily Summary for October 11, 2016 Units:  Metric    English   Both
« Previous Day
Next Day »
Daily Weekly Monthly Yearly Custom
  High: Low: Average:
Temperature: -17.8 °C -14.9 °C -12.9 °C
Dew Point: -17.8 °C -16.6 °C -15.6 °C
Humidity: Humidity % 46 % 72 %
Wind Speed: 0 km/h 0 km/h 6.6 km/h
Wind Gust: 0 km/h - -
Wind:- - SE
Pressure: 0 hPa 34418.7 hPa -
Precipitation: 0 mm    
Historical Graphs
 
 
Tabular Data for October 11, 2016
Time Temperature Dew Point Pressure Wind Wind Speed Wind Gust Humidity Rainfall Rate (Hourly)
-17.8 °C -17.8 °C 0 hPa Calm     Humidity % 0 mm
00:02 -14.1 °C -16.1 °C 34520.3 hPa Calm   2.6 km/h 77 % 0 mm
00:12 -14.3 °C -16.3 °C 34520.3 hPa Calm   2.6 km/h 78 % 0 mm
00:17 -14.3 °C -16.2 °C 34520.3 hPa Calm   2.6 km/h 79 % 0 mm
00:22 -14.3 °C -15.9 °C 34520.3 hPa Calm   2.6 km/h 81 % 0 mm
00:32 -14.3 °C -16.1 °C 34510.1 hPa Calm   2.6 km/h 80 % 0 mm
00:37 -14.1 °C -16 °C 34520.3 hPa NW 2.6 km/h 5.1 km/h 79 % 0 mm
00:42 -14 °C -16 °C 34520.3 hPa NW 5.1 km/h 5.1 km/h 78 % 0 mm
00:52 -13.8 °C -15.9 °C 34510.1 hPa Calm   7.7 km/h 77 % 0 mm
01:02 -13.7 °C -15.9 °C 34510.1 hPa Calm   5.1 km/h 75 % 0 mm
01:07 -13.7 °C -15.9 °C 34510.1 hPa North 2.6 km/h 5.1 km/h 75 % 0 mm
01:12 -13.7 °C -15.9 °C 34510.1 hPa Calm   5.1 km/h 75 % 0 mm
01:17 -13.7 °C -15.9 °C 34510.1 hPa Calm   5.1 km/h 75 % 0 mm
01:22 -13.6 °C -15.9 °C 34510.1 hPa Calm   5.1 km/h 75 % 0 mm
01:32 -13.5 °C -15.8 °C 34510.1 hPa NW 2.6 km/h 5.1 km/h 75 % 0 mm
01:37 -13.5 °C -15.8 °C 34510.1 hPa Calm   5.1 km/h 75 % 0 mm
01:42 -13.5 °C -15.8 °C 34496.6 hPa Calm   2.6 km/h 75 % 0 mm
01:47 -13.5 °C -15.7 °C 34510.1 hPa NW 2.6 km/h 5.1 km/h 76 % 0 mm
01:52 -13.4 °C -15.7 °C 34496.6 hPa NNW 2.6 km/h 5.1 km/h 76 % 0 mm
01:57 -13.4 °C -15.5 °C 34496.6 hPa NNW 2.6 km/h 7.7 km/h 77 % 0 mm
02:02 -13.4 °C -15.5 °C 34496.6 hPa NNW 5.1 km/h 7.7 km/h 77 % 0 mm
02:07 -13.4 °C -15.6 °C 34496.6 hPa NW 2.6 km/h 7.7 km/h 77 % 0 mm
02:12 -13.4 °C -15.6 °C 34496.6 hPa NW 2.6 km/h 12.9 km/h 77 % 0 mm
02:22 -13.4 °C -15.4 °C 34496.6 hPa NNE 2.6 km/h 12.9 km/h 78 % 0 mm
02:27 -13.4 °C -15.4 °C 34496.6 hPa North 5.1 km/h 10.3 km/h 78 % 0 mm
02:32 -13.5 °C -15.5 °C 34496.6 hPa NNW 5.1 km/h 7.7 km/h 78 % 0 mm
02:37 -13.5 °C -15.4 °C 34496.6 hPa Calm   7.7 km/h 79 % 0 mm
02:42 -13.6 °C -15.4 °C 34496.6 hPa WNW 2.6 km/h 7.7 km/h 79 % 0 mm
02:47 -13.7 °C -15.6 °C 34496.6 hPa Calm   7.7 km/h 79 % 0 mm
02:52 -13.7 °C -15.5 °C 34486.4 hPa NNW 2.6 km/h 5.1 km/h 80 % 0 mm
02:57 -13.7 °C -15.5 °C 34486.4 hPa NNE 5.1 km/h 5.1 km/h 80 % 0 mm
03:02 -13.8 °C -15.6 °C 34486.4 hPa Calm   7.7 km/h 80 % 0 mm
03:12 -14 °C -15.7 °C 34486.4 hPa NNW 5.1 km/h 7.7 km/h 81 % 0 mm
03:17 -13.9 °C -15.5 °C 34486.4 hPa Calm   10.3 km/h 82 % 0 mm
03:22 -13.8 °C -15.4 °C 34486.4 hPa NNW 7.7 km/h 12.9 km/h 82 % 0 mm
03:32 -13.9 °C -15.6 °C 34486.4 hPa NNW 5.1 km/h 10.3 km/h 82 % 0 mm
03:42 -14.1 °C -15.6 °C 34476.3 hPa NW 5.1 km/h 10.3 km/h 83 % 0 mm
03:47 -14.1 °C -15.6 °C 34476.3 hPa WNW 2.6 km/h 10.3 km/h 83 % 0 mm
03:52 -14.1 °C -15.6 °C 34476.3 hPa NW 2.6 km/h 10.3 km/h 83 % 0 mm
03:57 -14.1 °C -15.5 °C 34476.3 hPa Calm   10.3 km/h 84 % 0 mm
04:02 -14.2 °C -15.4 °C 34462.7 hPa NW 2.6 km/h 10.3 km/h 85 % 0 mm
04:12 -14.1 °C -15.4 °C 34462.7 hPa NW 2.6 km/h 7.7 km/h 85 % 0 mm
04:17 -14.1 °C -15.4 °C 34462.7 hPa North 7.7 km/h 7.7 km/h 85 % 0 mm
04:22 -14.2 °C -15.4 °C 34462.7 hPa NW 5.1 km/h 7.7 km/h 86 % 0 mm
04:27 -14.1 °C -15.3 °C 34462.7 hPa WNW 5.1 km/h 10.3 km/h 86 % 0 mm
04:37 -14.2 °C -15.4 °C 34462.7 hPa NNW 5.1 km/h 10.3 km/h 86 % 0 mm
04:42 -14.2 °C -15.4 °C 34462.7 hPa NNW 2.6 km/h 10.3 km/h 86 % 0 mm
04:47 -14.3 °C -15.4 °C 34462.7 hPa NNW 2.6 km/h 10.3 km/h 87 % 0 mm
04:52 -14.3 °C -15.4 °C 34462.7 hPa NW 2.6 km/h 10.3 km/h 87 % 0 mm
04:57 -14.3 °C -15.4 °C 34462.7 hPa WNW 2.6 km/h 7.7 km/h 87 % 0 mm
05:02 -14.3 °C -15.3 °C 34462.7 hPa North 2.6 km/h 7.7 km/h 88 % 0 mm
05:07 -14.4 °C -15.5 °C 34462.7 hPa NNE 2.6 km/h 5.1 km/h 87 % 0 mm
05:12 -14.6 °C -15.7 °C 34462.7 hPa North 2.6 km/h 5.1 km/h 87 % 0 mm
05:17 -14.6 °C -15.6 °C 34462.7 hPa Calm   5.1 km/h 88 % 0 mm
05:22 -14.6 °C -15.6 °C 34462.7 hPa NW 2.6 km/h 5.1 km/h 89 % 0 mm
05:27 -14.5 °C -15.3 °C 34462.7 hPa NW 2.6 km/h 5.1 km/h 90 % 0 mm
05:37 -14.7 °C -15.8 °C 34462.7 hPa North 2.6 km/h 7.7 km/h 87 % 0 mm
05:42 -14.9 °C -15.8 °C 34462.7 hPa NNW 2.6 km/h 7.7 km/h 89 % 0 mm
05:47 -14.9 °C -15.7 °C 34462.7 hPa Calm   10.3 km/h 90 % 0 mm
05:52 -14.8 °C -15.6 °C 34462.7 hPa NNW 5.1 km/h 10.3 km/h 91 % 0 mm
05:57 -14.7 °C -15.4 °C 34462.7 hPa NNE 2.6 km/h 10.3 km/h 91 % 0 mm
06:02 -14.6 °C -15.2 °C 34462.7 hPa North 5.1 km/h 7.7 km/h 92 % 0 mm
06:07 -14.5 °C -15.3 °C 34462.7 hPa North 5.1 km/h 10.3 km/h 91 % 0 mm
06:12 -14.5 °C -15.3 °C 34462.7 hPa NW 2.6 km/h 10.3 km/h 91 % 0 mm
06:17 -14.5 °C -15.3 °C 34462.7 hPa NNW 7.7 km/h 10.3 km/h 91 % 0 mm
06:22 -14.5 °C -15.3 °C 34462.7 hPa Calm   12.9 km/h 91 % 0 mm
06:27 -14.5 °C -15.3 °C 34462.7 hPa NNW 2.6 km/h 12.9 km/h 91 % 0 mm
06:32 -14.5 °C -15.3 °C 34462.7 hPa NNW 5.1 km/h 12.9 km/h 91 % 0 mm
06:37 -14.5 °C -15.2 °C 34462.7 hPa NW 2.6 km/h 12.9 km/h 92 % 0 mm
06:42 -14.4 °C -15.2 °C 34462.7 hPa Calm   10.3 km/h 91 % 0 mm
06:47 -14.4 °C -15.2 °C 34462.7 hPa North 2.6 km/h 10.3 km/h 91 % 0 mm
06:52 -14.4 °C -15.2 °C 34462.7 hPa North 2.6 km/h 10.3 km/h 91 % 0 mm
06:57 -14.4 °C -15.2 °C 34462.7 hPa North 2.6 km/h 10.3 km/h 91 % 0 mm
07:02 -14.4 °C -15.2 °C 34462.7 hPa North 2.6 km/h 5.1 km/h 91 % 0 mm
07:07 -14.4 °C -15.2 °C 34462.7 hPa NNW 5.1 km/h 5.1 km/h 91 % 0 mm
07:12 -14.3 °C -15.1 °C 34462.7 hPa North 2.6 km/h 5.1 km/h 91 % 0 mm
07:17 -14.3 °C -15.1 °C 34462.7 hPa Calm   7.7 km/h 91 % 0 mm
07:22 -14.3 °C -15.1 °C 34462.7 hPa NNW 2.6 km/h 7.7 km/h 91 % 0 mm
07:32 -14.2 °C -15 °C 34462.7 hPa Calm   7.7 km/h 91 % 0 mm
07:37 -14.2 °C -15 °C 34462.7 hPa Calm   5.1 km/h 91 % 0 mm
07:42 -14.2 °C -15 °C 34462.7 hPa Calm   5.1 km/h 91 % 0 mm
07:47 -14.2 °C -15 °C 34462.7 hPa Calm   5.1 km/h 91 % 0 mm
07:52 -14.2 °C -15 °C 34462.7 hPa NW 2.6 km/h 2.6 km/h 91 % 0 mm
07:57 -14.2 °C -14.9 °C 34462.7 hPa Calm   2.6 km/h 91 % 0 mm
08:02 -14.1 °C -14.9 °C 34462.7 hPa North 2.6 km/h 5.1 km/h 91 % 0 mm
08:07 -14.1 °C -14.8 °C 34462.7 hPa NW 2.6 km/h 7.7 km/h 91 % 0 mm
08:12 -14.1 °C -14.8 °C 34462.7 hPa Calm   7.7 km/h 91 % 0 mm
08:17 -14.1 °C -14.8 °C 34462.7 hPa Calm   7.7 km/h 91 % 0 mm
08:22 -14.1 °C -14.9 °C 34462.7 hPa NNW 2.6 km/h 5.1 km/h 90 % 0 mm
08:32 -14.2 °C -15 °C 34462.7 hPa Calm   2.6 km/h 90 % 0 mm
08:37 -14.2 °C -15 °C 34462.7 hPa Calm   2.6 km/h 91 % 0 mm
08:42 -14.3 °C -15.1 °C 34476.3 hPa Calm   2.6 km/h 91 % 0 mm
08:47 -14.3 °C -15.1 °C 34462.7 hPa Calm   2.6 km/h 91 % 0 mm
08:52 -14.3 °C -15.1 °C 34462.7 hPa Calm   2.6 km/h 91 % 0 mm
09:02 -14.1 °C -14.9 °C 34462.7 hPa Calm   5.1 km/h 91 % 0 mm
09:07 -14.1 °C -14.8 °C 34462.7 hPa Calm   5.1 km/h 91 % 0 mm
09:12 -13.9 °C -14.8 °C 34462.7 hPa Calm   5.1 km/h 90 % 0 mm
09:17 -13.8 °C -14.7 °C 34476.3 hPa Calm     90 % 0 mm
09:22 -13.7 °C -14.7 °C 34476.3 hPa Calm     89 % 0 mm
09:27 -13.7 °C -14.6 °C 34476.3 hPa NW 2.6 km/h 5.1 km/h 89 % 0 mm
09:32 -13.6 °C -14.6 °C 34476.3 hPa NNW 2.6 km/h 5.1 km/h 88 % 0 mm
09:42 -13.4 °C -14.5 °C 34476.3 hPa North 10.3 km/h 10.3 km/h 87 % 0 mm
09:47 -13.3 °C -14.5 °C 34476.3 hPa Calm   12.9 km/h 86 % 0 mm
09:52 -13.2 °C -14.4 °C 34476.3 hPa NNW 5.1 km/h 12.9 km/h 86 % 0 mm
09:57 -13.2 °C -14.6 °C 34486.4 hPa NE 7.7 km/h 15.6 km/h 85 % 0 mm
10:02 -13.2 °C -14.5 °C 34476.3 hPa NNE 7.7 km/h 18.2 km/h 85 % 0 mm
10:07 -13.2 °C -14.6 °C 34476.3 hPa NE 10.3 km/h 20.8 km/h 84 % 0 mm
10:12 -13.1 °C -14.5 °C 34476.3 hPa North 2.6 km/h 20.8 km/h 84 % 0 mm
10:17 -13 °C -14.4 °C 34476.3 hPa North 12.9 km/h 20.8 km/h 84 % 0 mm
10:22 -12.9 °C -14.6 °C 34486.4 hPa NNE 12.9 km/h 20.8 km/h 82 % 0 mm
10:32 -12.8 °C -14.6 °C 34476.3 hPa NNW 2.6 km/h 20.8 km/h 80 % 0 mm
10:37 -12.7 °C -14.5 °C 34476.3 hPa NE 7.7 km/h 20.8 km/h 80 % 0 mm
10:42 -12.6 °C -14.6 °C 34476.3 hPa NE 5.1 km/h 20.8 km/h 79 % 0 mm
10:52 -12.4 °C -14.8 °C 34476.3 hPa NNE 15.6 km/h 18.2 km/h 75 % 0 mm
10:57 -12.5 °C -14.8 °C 34476.3 hPa NE 18.2 km/h 23.3 km/h 75 % 0 mm
11:02 -12.4 °C -14.7 °C 34476.3 hPa NE 12.9 km/h 23.3 km/h 75 % 0 mm
11:07 -12.3 °C -14.6 °C 34476.3 hPa NE 12.9 km/h 23.3 km/h 75 % 0 mm
11:12 -12.2 °C -14.5 °C 34486.4 hPa NE 10.3 km/h 23.3 km/h 75 % 0 mm
11:17 -12.2 °C -14.6 °C 34486.4 hPa NE 12.9 km/h 20.8 km/h 74 % 0 mm
11:22 -12.1 °C -14.7 °C 34486.4 hPa NNE 18.2 km/h 20.8 km/h 73 % 0 mm
11:32 -11.9 °C -14.7 °C 34486.4 hPa NNE 12.9 km/h 25.9 km/h 71 % 0 mm
11:42 -11.9 °C -14.6 °C 34486.4 hPa NNE 12.9 km/h 28.5 km/h 72 % 0 mm
11:52 -11.7 °C -14.9 °C 34476.3 hPa NNE 18.2 km/h 31.1 km/h 68 % 0 mm
11:57 -11.7 °C -14.7 °C 34476.3 hPa NNE 18.2 km/h 36.2 km/h 69 % 0 mm
12:02 -11.7 °C -14.8 °C 34476.3 hPa North 15.6 km/h 36.2 km/h 69 % 0 mm
12:12 -11.4 °C -14.7 °C 34476.3 hPa NNE 15.6 km/h 31.1 km/h 67 % 0 mm
12:17 -11.4 °C -15.1 °C 34476.3 hPa NE 20.8 km/h 31.1 km/h 64 % 0 mm
12:22 -11.4 °C -14.8 °C 34462.7 hPa East 5.1 km/h 33.6 km/h 66 % 0 mm
12:27 -11.4 °C -14.7 °C 34462.7 hPa North 5.1 km/h 33.6 km/h 67 % 0 mm
12:32 -11.3 °C -14.9 °C 34476.3 hPa NNE 7.7 km/h 33.6 km/h 64 % 0 mm
12:37 -11.2 °C -14.9 °C 34462.7 hPa ENE 15.6 km/h 28.5 km/h 63 % 0 mm
12:42 -11.2 °C -14.9 °C 34462.7 hPa NE 18.2 km/h 33.6 km/h 64 % 0 mm
12:52 -11.1 °C -14.8 °C 34462.7 hPa NNE 12.9 km/h 33.6 km/h 63 % 0 mm
12:57 -10.9 °C -14.9 °C 34462.7 hPa NNE 15.6 km/h 25.9 km/h 62 % 0 mm
13:02 -10.9 °C -14.9 °C 34462.7 hPa NNE 5.1 km/h 25.9 km/h 61 % 0 mm
13:12 -10.5 °C -15.1 °C 34462.7 hPa ENE 10.3 km/h 28.5 km/h 57 % 0 mm
13:17 -10.4 °C -15.8 °C 34462.7 hPa NNE 20.8 km/h 28.5 km/h 52 % 0 mm
13:22 -10.4 °C -15.9 °C 34462.7 hPa NE 12.9 km/h 38.8 km/h 51 % 0 mm
13:32 -10.5 °C -16 °C 34452.6 hPa ENE 7.7 km/h 38.8 km/h 51 % 0 mm
13:37 -10.3 °C -15.7 °C 34452.6 hPa NE 12.9 km/h 31.1 km/h 52 % 0 mm
13:42 -10.3 °C -15.8 °C 34442.4 hPa East 12.9 km/h 31.1 km/h 51 % 0 mm
13:47 -10.2 °C -15.7 °C 34452.6 hPa NE 18.2 km/h 28.5 km/h 51 % 0 mm
13:52 -10.3 °C -15.7 °C 34442.4 hPa NE 15.6 km/h 28.5 km/h 52 % 0 mm
13:57 -10.2 °C -15.9 °C 34442.4 hPa NE 23.3 km/h 28.5 km/h 50 % 0 mm
14:02 -10.4 °C -15.9 °C 34442.4 hPa NE 7.7 km/h 36.2 km/h 51 % 0 mm
14:12 -10.2 °C -15.7 °C 34442.4 hPa ENE 20.8 km/h 36.2 km/h 51 % 0 mm
14:17 -10.4 °C -15.9 °C 34442.4 hPa NE 15.6 km/h 31.1 km/h 51 % 0 mm
14:22 -10.5 °C -15.8 °C 34442.4 hPa NE 18.2 km/h 31.1 km/h 52 % 0 mm
14:32 -10.5 °C -16 °C 34442.4 hPa NNE 15.6 km/h 41.4 km/h 51 % 0 mm
14:42 -10.4 °C -16.2 °C 34442.4 hPa NE 15.6 km/h 33.6 km/h 49 % 0 mm
14:52 -9.9 °C -15.8 °C 34428.8 hPa NNE 12.9 km/h 25.9 km/h 49 % 0 mm
14:57 -10.1 °C -16.1 °C 34442.4 hPa NE 15.6 km/h 38.8 km/h 48 % 0 mm
15:12 -10.2 °C -16.1 °C 34428.8 hPa ENE 5.1 km/h 31.1 km/h 49 % 0 mm
15:17 -10.4 °C -16.1 °C 34442.4 hPa NE 18.2 km/h 38.8 km/h 50 % 0 mm
15:22 -10.4 °C -16.1 °C 34442.4 hPa NNE 2.6 km/h 38.8 km/h 50 % 0 mm
15:32 -9.9 °C -15.9 °C 34428.8 hPa NE 18.2 km/h 31.1 km/h 48 % 0 mm
15:37 -10.1 °C -16.2 °C 34428.8 hPa North 10.3 km/h 28.5 km/h 47 % 0 mm
15:42 -10.2 °C -16.5 °C 34428.8 hPa NNE 12.9 km/h 31.1 km/h 46 % 0 mm
15:47 -10.3 °C -16.4 °C 34428.8 hPa ENE 5.1 km/h 33.6 km/h 47 % 0 mm
15:52 -10.1 °C -16.3 °C 34428.8 hPa NE 15.6 km/h 33.6 km/h 47 % 0 mm
15:57 -10.3 °C -16.3 °C 34428.8 hPa NNE 20.8 km/h 38.8 km/h 48 % 0 mm
16:02 -10.2 °C -16.2 °C 34428.8 hPa NE 15.6 km/h 41.4 km/h 48 % 0 mm
16:12 -10.3 °C -16.3 °C 34418.7 hPa NE 18.2 km/h 33.6 km/h 48 % 0 mm
16:22 -10.1 °C -16.3 °C 34418.7 hPa NE 31.1 km/h 33.6 km/h 47 % 0 mm
16:27 -10.2 °C -16.3 °C 34428.8 hPa ENE 28.5 km/h 33.6 km/h 47 % 0 mm
16:32 -10.2 °C -16.3 °C 34418.7 hPa ENE 15.6 km/h 36.2 km/h 47 % 0 mm
16:37 -10.1 °C -16.3 °C 34418.7 hPa ENE 10.3 km/h 36.2 km/h 47 % 0 mm
16:42 -10.1 °C -16.1 °C 34418.7 hPa NNE 31.1 km/h 31.1 km/h 48 % 0 mm
16:47 -10.1 °C -16.3 °C 34418.7 hPa NNE 18.2 km/h 41.4 km/h 47 % 0 mm
16:52 -10.2 °C -16.3 °C 34418.7 hPa NNE 18.2 km/h 41.4 km/h 47 % 0 mm
16:57 -10.2 °C -16.6 °C 34418.7 hPa NNE 18.2 km/h 41.4 km/h 46 % 0 mm
17:02 -10.1 °C -16.3 °C 34418.7 hPa NE 10.3 km/h 33.6 km/h 47 % 0 mm
17:12 -10.2 °C -16.3 °C 34418.7 hPa NE 18.2 km/h 36.2 km/h 47 % 0 mm
17:17 -10.3 °C -16.3 °C 34418.7 hPa North 10.3 km/h 36.2 km/h 48 % 0 mm
17:22 -10.3 °C -16.3 °C 34418.7 hPa East 18.2 km/h 36.2 km/h 48 % 0 mm
17:32 -10.4 °C -16.4 °C 34418.7 hPa NE 12.9 km/h 31.1 km/h 48 % 0 mm
17:37 -10.4 °C -16.3 °C 34418.7 hPa NNE 23.3 km/h 31.1 km/h 49 % 0 mm
17:42 -10.5 °C -16.5 °C 34418.7 hPa NE 20.8 km/h 31.1 km/h 48 % 0 mm
17:52 -10.6 °C -16.4 °C 34418.7 hPa NNE 15.6 km/h 36.2 km/h 49 % 0 mm
18:02 -10.7 °C -16.4 °C 34418.7 hPa NE 12.9 km/h 25.9 km/h 50 % 0 mm
18:07 -10.8 °C -16.4 °C 34418.7 hPa NNE 15.6 km/h 25.9 km/h 50 % 0 mm
18:12 -10.9 °C -16.5 °C 34418.7 hPa NE 7.7 km/h 25.9 km/h 50 % 0 mm
18:17 -10.9 °C -16.4 °C 34418.7 hPa NNE 5.1 km/h 25.9 km/h 51 % 0 mm
18:22 -10.9 °C -16.3 °C 34418.7 hPa NE 7.7 km/h 25.9 km/h 52 % 0 mm
18:32 -11 °C -16 °C 34418.7 hPa NE 20.8 km/h 20.8 km/h 54 % 0 mm
18:37 -11.1 °C -16 °C 34418.7 hPa NE 20.8 km/h 23.3 km/h 55 % 0 mm
18:47 -11.3 °C -16.1 °C 34418.7 hPa Calm   23.3 km/h 56 % 0 mm
18:52 -11.4 °C -16 °C 34418.7 hPa NNE 10.3 km/h 23.3 km/h 57 % 0 mm
18:57 -11.6 °C -16 °C 34428.8 hPa NNE 5.1 km/h 20.8 km/h 58 % 0 mm
19:02 -11.7 °C -16 °C 34428.8 hPa NNW 5.1 km/h 20.8 km/h 59 % 0 mm
19:12 -11.9 °C -16 °C 34428.8 hPa NE 7.7 km/h 20.8 km/h 60 % 0 mm
19:17 -11.9 °C -16.1 °C 34428.8 hPa NNE 10.3 km/h 20.8 km/h 60 % 0 mm
19:22 -12.1 °C -16.2 °C 34428.8 hPa NNE 2.6 km/h 18.2 km/h 60 % 0 mm
19:27 -12.2 °C -16.2 °C 34428.8 hPa North 2.6 km/h 15.6 km/h 61 % 0 mm
19:32 -12.4 °C -16.1 °C 34428.8 hPa Calm   15.6 km/h 63 % 0 mm
19:42 -12.7 °C -16.2 °C 34442.4 hPa Calm   5.1 km/h 65 % 0 mm
19:52 -12.9 °C -16.3 °C 34442.4 hPa Calm   2.6 km/h 66 % 0 mm
19:57 -12.9 °C -16.2 °C 34442.4 hPa NNE 2.6 km/h 7.7 km/h 67 % 0 mm
20:02 -13 °C -16.2 °C 34442.4 hPa Calm   7.7 km/h 67 % 0 mm
20:12 -13.1 °C -16.3 °C 34442.4 hPa ENE 5.1 km/h 7.7 km/h 67 % 0 mm
20:17 -13.1 °C -16.2 °C 34442.4 hPa Calm   7.7 km/h 68 % 0 mm
20:22 -13.1 °C -16.1 °C 34442.4 hPa NNW 2.6 km/h 7.7 km/h 69 % 0 mm
20:32 -13.2 °C -16.2 °C 34442.4 hPa Calm   7.7 km/h 69 % 0 mm
20:37 -13.1 °C -16.1 °C 34442.4 hPa NNE 7.7 km/h 10.3 km/h 69 % 0 mm
20:42 -13.1 °C -16.1 °C 34442.4 hPa Calm   12.9 km/h 69 % 0 mm
20:47 -13.1 °C -16.1 °C 34442.4 hPa NNE 5.1 km/h 12.9 km/h 69 % 0 mm
20:52 -13.1 °C -16 °C 34442.4 hPa NNW 2.6 km/h 10.3 km/h 70 % 0 mm
20:57 -13.2 °C -16.1 °C 34442.4 hPa NNW 2.6 km/h 10.3 km/h 70 % 0 mm
21:12 -13.5 °C -16 °C 34442.4 hPa North 5.1 km/h 7.7 km/h 73 % 0 mm
21:17 -13.6 °C -16.1 °C 34442.4 hPa Calm   7.7 km/h 73 % 0 mm
21:22 -13.6 °C -16.1 °C 34442.4 hPa Calm   7.7 km/h 73 % 0 mm
21:32 -13.7 °C -16.2 °C 34442.4 hPa North 2.6 km/h 7.7 km/h 73 % 0 mm
21:37 -13.7 °C -16.2 °C 34442.4 hPa North 2.6 km/h 7.7 km/h 73 % 0 mm
21:47 -13.8 °C -16.3 °C 34442.4 hPa NNE 10.3 km/h 12.9 km/h 73 % 0 mm
21:52 -13.7 °C -16.2 °C 34442.4 hPa NNE 7.7 km/h 12.9 km/h 73 % 0 mm
21:57 -13.6 °C -16.1 °C 34442.4 hPa NE 7.7 km/h 12.9 km/h 73 % 0 mm
22:02 -13.5 °C -16 °C 34442.4 hPa NNE 7.7 km/h 12.9 km/h 73 % 0 mm
22:12 -13.4 °C -16.1 °C 34442.4 hPa NE 2.6 km/h 12.9 km/h 72 % 0 mm
22:17 -13.5 °C -16.1 °C 34442.4 hPa NNE 2.6 km/h 12.9 km/h 72 % 0 mm
22:22 -13.6 °C -16.2 °C 34442.4 hPa NNE 2.6 km/h 12.9 km/h 72 % 0 mm
22:27 -13.7 °C -16.2 °C 34442.4 hPa Calm   10.3 km/h 73 % 0 mm
22:32 -13.7 °C -16.2 °C 34442.4 hPa Calm   5.1 km/h 73 % 0 mm
22:37 -13.8 °C -16.2 °C 34428.8 hPa Calm   5.1 km/h 74 % 0 mm
22:42 -13.9 °C -16.2 °C 34428.8 hPa Calm   2.6 km/h 75 % 0 mm
22:52 -14.1 °C -16.3 °C 34428.8 hPa Calm   2.6 km/h 76 % 0 mm
22:57 -14.2 °C -16.3 °C 34428.8 hPa North 2.6 km/h 5.1 km/h 76 % 0 mm
23:02 -14.2 °C -16.4 °C 34428.8 hPa North 5.1 km/h 5.1 km/h 76 % 0 mm
23:12 -14.3 °C -16.4 °C 34428.8 hPa NNE 2.6 km/h 5.1 km/h 77 % 0 mm
23:17 -14.4 °C -16.3 °C 34418.7 hPa Calm   5.1 km/h 78 % 0 mm
23:22 -14.4 °C -16.3 °C 34418.7 hPa Calm   5.1 km/h 78 % 0 mm
23:27 -14.4 °C -16.4 °C 34418.7 hPa NNE 2.6 km/h 5.1 km/h 78 % 0 mm
23:32 -14.4 °C -16.3 °C 34418.7 hPa NE 2.6 km/h 5.1 km/h 78 % 0 mm
23:37 -14.4 °C -16.3 °C 34418.7 hPa NNE 2.6 km/h 7.7 km/h 78 % 0 mm
23:42 -14.3 °C -16.3 °C 34418.7 hPa Calm   10.3 km/h 78 % 0 mm
23:47 -14.3 °C -16.4 °C 34418.7 hPa NE 2.6 km/h 10.3 km/h 77 % 0 mm
23:52 -14.4 °C -16.4 °C 34418.7 hPa NNE 7.7 km/h 10.3 km/h 77 % 0 mm
23:57 -14.4 °C -16.4 °C 34418.7 hPa North 5.1 km/h 10.3 km/h 77 % 0 mm
Meteo18
Compliments of Weather Underground - 4 mb

Script developed by  Jim McMurry - jmcmurry@mwt.net Adapted for the template by  Wim van der Kuil - Leuven-Template.eu

You find our weather info also at:

European Weather Network

Weather Underground

Equipment we use:

Weather-station
Davis Vue

Weather-program
Meteobridge

Weather-server
Raspberry PI 2 B+

Provider
1 and 1

Davis Vue

Meteobridge

Raspberry PI 2 B+

1 and 1